sensor_id;sensor_type;location;lat;lon;timestamp;P1;durP1;ratioP1;P2;durP2;ratioP2
37455;SDS011;23316;50.718;7.328;2024-03-02T00:00:30;1.00;;;0.70;;
37455;SDS011;23316;50.718;7.328;2024-03-02T00:02:57;2.20;;;0.90;;
37455;SDS011;23316;50.718;7.328;2024-03-02T00:05:24;1.60;;;0.88;;
37455;SDS011;23316;50.718;7.328;2024-03-02T00:07:54;1.63;;;1.10;;
37455;SDS011;23316;50.718;7.328;2024-03-02T00:10:24;0.95;;;0.70;;
37455;SDS011;23316;50.718;7.328;2024-03-02T00:12:54;0.85;;;0.73;;
37455;SDS011;23316;50.718;7.328;2024-03-02T00:15:29;0.82;;;0.80;;
37455;SDS011;23316;50.718;7.328;2024-03-02T00:18:10;1.13;;;1.00;;
37455;SDS011;23316;50.718;7.328;2024-03-02T00:20:39;0.80;;;0.80;;
37455;SDS011;23316;50.718;7.328;2024-03-02T00:23:08;1.88;;;1.13;;
37455;SDS011;23316;50.718;7.328;2024-03-02T00:25:40;1.08;;;0.73;;
37455;SDS011;23316;50.718;7.328;2024-03-02T00:28:13;1.60;;;1.02;;
37455;SDS011;23316;50.718;7.328;2024-03-02T00:30:55;1.77;;;0.82;;
37455;SDS011;23316;50.718;7.328;2024-03-02T00:33:30;1.48;;;0.80;;
37455;SDS011;23316;50.718;7.328;2024-03-02T00:35:58;1.63;;;0.90;;
37455;SDS011;23316;50.718;7.328;2024-03-02T00:38:27;1.05;;;0.88;;
37455;SDS011;23316;50.718;7.328;2024-03-02T00:40:56;1.20;;;0.90;;
37455;SDS011;23316;50.718;7.328;2024-03-02T00:46:23;1.05;;;0.80;;
37455;SDS011;23316;50.718;7.328;2024-03-02T00:48:52;2.10;;;1.08;;
37455;SDS011;23316;50.718;7.328;2024-03-02T00:51:21;1.00;;;0.82;;
37455;SDS011;23316;50.718;7.328;2024-03-02T00:53:51;1.60;;;1.00;;
37455;SDS011;23316;50.718;7.328;2024-03-02T00:56:21;1.70;;;1.15;;
37455;SDS011;23316;50.718;7.328;2024-03-02T00:58:49;1.10;;;0.80;;
37455;SDS011;23316;50.718;7.328;2024-03-02T01:01:16;1.20;;;0.70;;
37455;SDS011;23316;50.718;7.328;2024-03-02T01:03:44;1.17;;;1.00;;
37455;SDS011;23316;50.718;7.328;2024-03-02T01:06:11;2.15;;;1.15;;
37455;SDS011;23316;50.718;7.328;2024-03-02T01:08:39;1.85;;;0.90;;
37455;SDS011;23316;50.718;7.328;2024-03-02T01:11:07;1.20;;;0.90;;
37455;SDS011;23316;50.718;7.328;2024-03-02T01:13:35;1.33;;;1.02;;
37455;SDS011;23316;50.718;7.328;2024-03-02T01:16:02;1.35;;;1.00;;
37455;SDS011;23316;50.718;7.328;2024-03-02T01:18:30;1.08;;;0.80;;
37455;SDS011;23316;50.718;7.328;2024-03-02T01:20:57;1.15;;;1.00;;
37455;SDS011;23316;50.718;7.328;2024-03-02T01:23:24;1.30;;;1.00;;
37455;SDS011;23316;50.718;7.328;2024-03-02T01:25:52;1.75;;;0.93;;
37455;SDS011;23316;50.718;7.328;2024-03-02T01:28:20;1.23;;;1.10;;
37455;SDS011;23316;50.718;7.328;2024-03-02T01:30:48;1.65;;;0.90;;
37455;SDS011;23316;50.718;7.328;2024-03-02T01:33:16;1.20;;;1.00;;
37455;SDS011;23316;50.718;7.328;2024-03-02T01:35:43;1.77;;;0.73;;
37455;SDS011;23316;50.718;7.328;2024-03-02T01:38:10;1.20;;;1.00;;
37455;SDS011;23316;50.718;7.328;2024-03-02T01:40:37;1.08;;;0.98;;
37455;SDS011;23316;50.718;7.328;2024-03-02T01:43:05;1.25;;;1.05;;
37455;SDS011;23316;50.718;7.328;2024-03-02T01:45:34;2.88;;;1.10;;
37455;SDS011;23316;50.718;7.328;2024-03-02T01:48:03;1.02;;;0.70;;
37455;SDS011;23316;50.718;7.328;2024-03-02T01:50:31;1.25;;;0.90;;
37455;SDS011;23316;50.718;7.328;2024-03-02T01:52:59;1.83;;;1.00;;
37455;SDS011;23316;50.718;7.328;2024-03-02T01:55:28;1.45;;;1.05;;
37455;SDS011;23316;50.718;7.328;2024-03-02T01:57:55;1.20;;;1.10;;
37455;SDS011;23316;50.718;7.328;2024-03-02T02:00:23;1.10;;;0.80;;
37455;SDS011;23316;50.718;7.328;2024-03-02T02:02:53;1.00;;;0.88;;
37455;SDS011;23316;50.718;7.328;2024-03-02T02:05:20;1.27;;;0.98;;
37455;SDS011;23316;50.718;7.328;2024-03-02T02:07:48;1.30;;;1.17;;
37455;SDS011;23316;50.718;7.328;2024-03-02T02:10:15;2.03;;;1.05;;
37455;SDS011;23316;50.718;7.328;2024-03-02T02:12:42;1.17;;;1.05;;
37455;SDS011;23316;50.718;7.328;2024-03-02T02:15:23;1.98;;;0.88;;
37455;SDS011;23316;50.718;7.328;2024-03-02T02:17:52;1.35;;;0.80;;
37455;SDS011;23316;50.718;7.328;2024-03-02T02:20:20;0.85;;;0.80;;
37455;SDS011;23316;50.718;7.328;2024-03-02T02:22:58;1.50;;;0.90;;
37455;SDS011;23316;50.718;7.328;2024-03-02T02:25:25;1.20;;;1.00;;
37455;SDS011;23316;50.718;7.328;2024-03-02T02:27:53;1.23;;;0.93;;
37455;SDS011;23316;50.718;7.328;2024-03-02T02:30:21;1.73;;;1.00;;
37455;SDS011;23316;50.718;7.328;2024-03-02T02:32:50;1.42;;;0.88;;
37455;SDS011;23316;50.718;7.328;2024-03-02T02:35:17;1.30;;;0.82;;
37455;SDS011;23316;50.718;7.328;2024-03-02T02:37:45;1.02;;;0.85;;
37455;SDS011;23316;50.718;7.328;2024-03-02T02:40:14;1.00;;;0.90;;
37455;SDS011;23316;50.718;7.328;2024-03-02T02:42:44;1.08;;;0.80;;
37455;SDS011;23316;50.718;7.328;2024-03-02T02:45:11;1.30;;;0.90;;
37455;SDS011;23316;50.718;7.328;2024-03-02T02:47:40;1.25;;;0.85;;
37455;SDS011;23316;50.718;7.328;2024-03-02T02:50:07;1.88;;;1.27;;
37455;SDS011;23316;50.718;7.328;2024-03-02T02:52:36;1.65;;;0.90;;
37455;SDS011;23316;50.718;7.328;2024-03-02T02:55:06;1.20;;;1.00;;
37455;SDS011;23316;50.718;7.328;2024-03-02T02:57:36;1.15;;;0.90;;
37455;SDS011;23316;50.718;7.328;2024-03-02T03:00:05;1.60;;;1.15;;
37455;SDS011;23316;50.718;7.328;2024-03-02T03:02:36;1.83;;;1.00;;
37455;SDS011;23316;50.718;7.328;2024-03-02T03:05:05;1.17;;;1.00;;
37455;SDS011;23316;50.718;7.328;2024-03-02T03:07:33;1.45;;;1.20;;
37455;SDS011;23316;50.718;7.328;2024-03-02T03:10:02;1.50;;;1.00;;
37455;SDS011;23316;50.718;7.328;2024-03-02T03:12:29;1.42;;;1.27;;
37455;SDS011;23316;50.718;7.328;2024-03-02T03:14:58;1.60;;;1.10;;
37455;SDS011;23316;50.718;7.328;2024-03-02T03:17:26;0.82;;;0.82;;
37455;SDS011;23316;50.718;7.328;2024-03-02T03:19:53;0.93;;;0.90;;
37455;SDS011;23316;50.718;7.328;2024-03-02T03:22:21;2.03;;;1.38;;
37455;SDS011;23316;50.718;7.328;2024-03-02T03:24:48;1.40;;;1.05;;
37455;SDS011;23316;50.718;7.328;2024-03-02T03:27:15;1.13;;;1.00;;
37455;SDS011;23316;50.718;7.328;2024-03-02T03:29:42;1.35;;;1.05;;
37455;SDS011;23316;50.718;7.328;2024-03-02T03:32:10;2.63;;;1.27;;
37455;SDS011;23316;50.718;7.328;2024-03-02T03:34:38;1.65;;;1.27;;
37455;SDS011;23316;50.718;7.328;2024-03-02T03:37:05;2.10;;;1.30;;
37455;SDS011;23316;50.718;7.328;2024-03-02T03:39:33;2.22;;;1.10;;
37455;SDS011;23316;50.718;7.328;2024-03-02T03:42:01;2.00;;;1.10;;
37455;SDS011;23316;50.718;7.328;2024-03-02T03:44:28;1.52;;;1.13;;
37455;SDS011;23316;50.718;7.328;2024-03-02T03:46:56;1.30;;;0.93;;
37455;SDS011;23316;50.718;7.328;2024-03-02T03:49:24;1.58;;;1.17;;
37455;SDS011;23316;50.718;7.328;2024-03-02T03:51:51;1.70;;;1.05;;
37455;SDS011;23316;50.718;7.328;2024-03-02T03:54:19;1.27;;;0.93;;
37455;SDS011;23316;50.718;7.328;2024-03-02T03:56:46;1.70;;;1.05;;
37455;SDS011;23316;50.718;7.328;2024-03-02T03:59:13;1.30;;;1.10;;
37455;SDS011;23316;50.718;7.328;2024-03-02T04:01:40;1.40;;;1.20;;
37455;SDS011;23316;50.718;7.328;2024-03-02T04:04:07;3.38;;;1.10;;
37455;SDS011;23316;50.718;7.328;2024-03-02T04:06:36;1.58;;;0.93;;
37455;SDS011;23316;50.718;7.328;2024-03-02T04:09:03;1.05;;;0.73;;
37455;SDS011;23316;50.718;7.328;2024-03-02T04:11:30;1.35;;;0.85;;
37455;SDS011;23316;50.718;7.328;2024-03-02T04:13:57;1.30;;;0.95;;
37455;SDS011;23316;50.718;7.328;2024-03-02T04:16:24;1.73;;;1.02;;
37455;SDS011;23316;50.718;7.328;2024-03-02T04:18:52;0.80;;;0.73;;
37455;SDS011;23316;50.718;7.328;2024-03-02T04:21:19;1.23;;;0.90;;
37455;SDS011;23316;50.718;7.328;2024-03-02T04:23:48;1.45;;;0.93;;
37455;SDS011;23316;50.718;7.328;2024-03-02T04:26:15;0.82;;;0.80;;
37455;SDS011;23316;50.718;7.328;2024-03-02T04:28:47;1.58;;;1.00;;
37455;SDS011;23316;50.718;7.328;2024-03-02T04:31:15;1.60;;;1.17;;
37455;SDS011;23316;50.718;7.328;2024-03-02T04:33:42;1.80;;;1.05;;
37455;SDS011;23316;50.718;7.328;2024-03-02T04:36:09;3.20;;;1.13;;
37455;SDS011;23316;50.718;7.328;2024-03-02T04:38:36;1.35;;;0.95;;
37455;SDS011;23316;50.718;7.328;2024-03-02T04:41:05;1.35;;;0.82;;
37455;SDS011;23316;50.718;7.328;2024-03-02T04:43:33;6.85;;;1.10;;
37455;SDS011;23316;50.718;7.328;2024-03-02T04:46:01;3.33;;;1.08;;
37455;SDS011;23316;50.718;7.328;2024-03-02T04:48:28;4.65;;;1.10;;
37455;SDS011;23316;50.718;7.328;2024-03-02T04:50:55;6.90;;;1.70;;
37455;SDS011;23316;50.718;7.328;2024-03-02T04:53:22;7.30;;;1.27;;
37455;SDS011;23316;50.718;7.328;2024-03-02T04:55:49;7.75;;;1.45;;
37455;SDS011;23316;50.718;7.328;2024-03-02T04:58:54;4.00;;;1.70;;
37455;SDS011;23316;50.718;7.328;2024-03-02T05:01:22;5.80;;;1.35;;
37455;SDS011;23316;50.718;7.328;2024-03-02T05:03:49;6.78;;;1.60;;
37455;SDS011;23316;50.718;7.328;2024-03-02T05:06:16;4.53;;;1.00;;
37455;SDS011;23316;50.718;7.328;2024-03-02T05:08:43;6.80;;;1.80;;
37455;SDS011;23316;50.718;7.328;2024-03-02T05:11:10;2.47;;;1.27;;
37455;SDS011;23316;50.718;7.328;2024-03-02T05:14:17;2.28;;;1.10;;
37455;SDS011;23316;50.718;7.328;2024-03-02T05:16:44;5.30;;;1.30;;
37455;SDS011;23316;50.718;7.328;2024-03-02T05:19:11;2.78;;;1.33;;
37455;SDS011;23316;50.718;7.328;2024-03-02T05:21:38;2.95;;;1.23;;
37455;SDS011;23316;50.718;7.328;2024-03-02T05:24:06;2.60;;;1.10;;
37455;SDS011;23316;50.718;7.328;2024-03-02T05:26:33;3.67;;;1.30;;
37455;SDS011;23316;50.718;7.328;2024-03-02T05:29:00;4.63;;;1.10;;
37455;SDS011;23316;50.718;7.328;2024-03-02T05:31:29;1.63;;;1.13;;
37455;SDS011;23316;50.718;7.328;2024-03-02T05:33:56;7.80;;;1.20;;
37455;SDS011;23316;50.718;7.328;2024-03-02T05:36:24;13.25;;;7.72;;
37455;SDS011;23316;50.718;7.328;2024-03-02T05:38:51;41.13;;;25.25;;
37455;SDS011;23316;50.718;7.328;2024-03-02T05:41:18;49.47;;;29.17;;
37455;SDS011;23316;50.718;7.328;2024-03-02T05:43:46;36.03;;;21.92;;
37455;SDS011;23316;50.718;7.328;2024-03-02T05:46:13;31.15;;;17.17;;
37455;SDS011;23316;50.718;7.328;2024-03-02T05:48:41;26.70;;;13.45;;
37455;SDS011;23316;50.718;7.328;2024-03-02T05:51:09;21.98;;;12.48;;
37455;SDS011;23316;50.718;7.328;2024-03-02T05:53:36;15.63;;;10.27;;
37455;SDS011;23316;50.718;7.328;2024-03-02T05:56:04;15.40;;;9.68;;
37455;SDS011;23316;50.718;7.328;2024-03-02T05:58:32;13.60;;;9.10;;
37455;SDS011;23316;50.718;7.328;2024-03-02T06:01:11;13.20;;;8.57;;
37455;SDS011;23316;50.718;7.328;2024-03-02T06:03:39;12.82;;;8.35;;
37455;SDS011;23316;50.718;7.328;2024-03-02T06:06:07;13.00;;;7.60;;
37455;SDS011;23316;50.718;7.328;2024-03-02T06:08:34;13.38;;;7.38;;
37455;SDS011;23316;50.718;7.328;2024-03-02T06:11:01;10.82;;;7.20;;
37455;SDS011;23316;50.718;7.328;2024-03-02T06:13:29;12.52;;;6.57;;
37455;SDS011;23316;50.718;7.328;2024-03-02T06:15:56;58.33;;;36.13;;
37455;SDS011;23316;50.718;7.328;2024-03-02T06:18:24;82.45;;;43.80;;
37455;SDS011;23316;50.718;7.328;2024-03-02T06:20:51;58.28;;;36.92;;
37455;SDS011;23316;50.718;7.328;2024-03-02T06:23:19;44.28;;;28.80;;
37455;SDS011;23316;50.718;7.328;2024-03-02T06:25:46;36.70;;;22.95;;
37455;SDS011;23316;50.718;7.328;2024-03-02T06:28:13;31.98;;;18.40;;
37455;SDS011;23316;50.718;7.328;2024-03-02T06:30:41;26.15;;;17.35;;
37455;SDS011;23316;50.718;7.328;2024-03-02T06:33:08;26.60;;;16.83;;
37455;SDS011;23316;50.718;7.328;2024-03-02T06:35:35;24.35;;;15.07;;
37455;SDS011;23316;50.718;7.328;2024-03-02T06:38:03;22.55;;;14.27;;
37455;SDS011;23316;50.718;7.328;2024-03-02T06:40:32;21.80;;;13.07;;
37455;SDS011;23316;50.718;7.328;2024-03-02T06:42:59;22.00;;;11.63;;
37455;SDS011;23316;50.718;7.328;2024-03-02T06:45:26;21.65;;;11.27;;
37455;SDS011;23316;50.718;7.328;2024-03-02T06:47:56;24.48;;;11.40;;
37455;SDS011;23316;50.718;7.328;2024-03-02T06:50:23;25.02;;;10.85;;
37455;SDS011;23316;50.718;7.328;2024-03-02T06:52:50;18.75;;;10.73;;
37455;SDS011;23316;50.718;7.328;2024-03-02T06:55:18;18.08;;;9.68;;
37455;SDS011;23316;50.718;7.328;2024-03-02T06:57:46;16.33;;;9.50;;
37455;SDS011;23316;50.718;7.328;2024-03-02T07:00:14;15.27;;;8.73;;
37455;SDS011;23316;50.718;7.328;2024-03-02T07:02:43;14.35;;;7.97;;
37455;SDS011;23316;50.718;7.328;2024-03-02T07:05:11;12.55;;;7.65;;
37455;SDS011;23316;50.718;7.328;2024-03-02T07:07:39;14.02;;;7.65;;
37455;SDS011;23316;50.718;7.328;2024-03-02T07:10:06;12.15;;;7.57;;
37455;SDS011;23316;50.718;7.328;2024-03-02T07:12:34;15.50;;;6.88;;
37455;SDS011;23316;50.718;7.328;2024-03-02T07:15:03;10.52;;;6.22;;
37455;SDS011;23316;50.718;7.328;2024-03-02T07:17:48;10.75;;;6.57;;
37455;SDS011;23316;50.718;7.328;2024-03-02T07:20:16;9.95;;;6.25;;
37455;SDS011;23316;50.718;7.328;2024-03-02T07:22:43;9.35;;;6.07;;
37455;SDS011;23316;50.718;7.328;2024-03-02T07:25:10;7.85;;;5.68;;
37455;SDS011;23316;50.718;7.328;2024-03-02T07:27:37;8.90;;;5.63;;
37455;SDS011;23316;50.718;7.328;2024-03-02T07:30:07;8.93;;;5.95;;
37455;SDS011;23316;50.718;7.328;2024-03-02T07:32:34;7.95;;;5.40;;
37455;SDS011;23316;50.718;7.328;2024-03-02T07:35:02;7.68;;;4.93;;
37455;SDS011;23316;50.718;7.328;2024-03-02T07:37:29;7.60;;;5.25;;
37455;SDS011;23316;50.718;7.328;2024-03-02T07:39:56;6.68;;;4.30;;
37455;SDS011;23316;50.718;7.328;2024-03-02T07:42:24;6.38;;;4.63;;
37455;SDS011;23316;50.718;7.328;2024-03-02T07:44:51;6.03;;;4.22;;
37455;SDS011;23316;50.718;7.328;2024-03-02T07:47:20;5.88;;;3.90;;
37455;SDS011;23316;50.718;7.328;2024-03-02T07:49:48;7.10;;;3.78;;
37455;SDS011;23316;50.718;7.328;2024-03-02T07:52:16;5.65;;;3.63;;
37455;SDS011;23316;50.718;7.328;2024-03-02T07:54:43;4.68;;;3.60;;
37455;SDS011;23316;50.718;7.328;2024-03-02T07:57:10;5.38;;;3.80;;
37455;SDS011;23316;50.718;7.328;2024-03-02T07:59:37;7.47;;;3.58;;
37455;SDS011;23316;50.718;7.328;2024-03-02T08:02:05;5.18;;;3.15;;
37455;SDS011;23316;50.718;7.328;2024-03-02T08:04:34;9.43;;;2.75;;
37455;SDS011;23316;50.718;7.328;2024-03-02T08:07:02;8.57;;;2.75;;
37455;SDS011;23316;50.718;7.328;2024-03-02T08:09:30;5.70;;;2.40;;
37455;SDS011;23316;50.718;7.328;2024-03-02T08:11:57;32.70;;;19.40;;
37455;SDS011;23316;50.718;7.328;2024-03-02T08:14:24;47.55;;;28.58;;
37455;SDS011;23316;50.718;7.328;2024-03-02T08:16:52;45.53;;;26.52;;
37455;SDS011;23316;50.718;7.328;2024-03-02T08:19:19;42.40;;;24.92;;
37455;SDS011;23316;50.718;7.328;2024-03-02T08:21:47;41.45;;;23.20;;
37455;SDS011;23316;50.718;7.328;2024-03-02T08:24:15;38.58;;;22.38;;
37455;SDS011;23316;50.718;7.328;2024-03-02T08:26:42;33.90;;;17.52;;
37455;SDS011;23316;50.718;7.328;2024-03-02T08:29:09;34.78;;;16.88;;
37455;SDS011;23316;50.718;7.328;2024-03-02T08:31:37;28.27;;;16.13;;
37455;SDS011;23316;50.718;7.328;2024-03-02T08:34:04;16.95;;;9.30;;
37455;SDS011;23316;50.718;7.328;2024-03-02T08:36:32;11.32;;;5.80;;
37455;SDS011;23316;50.718;7.328;2024-03-02T08:39:00;14.82;;;5.47;;
37455;SDS011;23316;50.718;7.328;2024-03-02T08:41:28;10.63;;;5.20;;
37455;SDS011;23316;50.718;7.328;2024-03-02T08:43:55;7.75;;;4.32;;
37455;SDS011;23316;50.718;7.328;2024-03-02T08:46:23;11.30;;;4.03;;
37455;SDS011;23316;50.718;7.328;2024-03-02T08:48:50;14.55;;;3.72;;
37455;SDS011;23316;50.718;7.328;2024-03-02T08:51:17;6.78;;;3.40;;
37455;SDS011;23316;50.718;7.328;2024-03-02T08:53:44;7.25;;;3.95;;
37455;SDS011;23316;50.718;7.328;2024-03-02T08:56:14;8.32;;;3.75;;
37455;SDS011;23316;50.718;7.328;2024-03-02T08:58:42;10.25;;;3.65;;
37455;SDS011;23316;50.718;7.328;2024-03-02T09:01:10;7.72;;;4.00;;
37455;SDS011;23316;50.718;7.328;2024-03-02T09:03:37;6.25;;;3.80;;
37455;SDS011;23316;50.718;7.328;2024-03-02T09:06:04;6.97;;;4.00;;
37455;SDS011;23316;50.718;7.328;2024-03-02T09:08:31;6.32;;;3.35;;
37455;SDS011;23316;50.718;7.328;2024-03-02T09:11:00;8.98;;;3.50;;
37455;SDS011;23316;50.718;7.328;2024-03-02T09:13:29;12.95;;;3.38;;
37455;SDS011;23316;50.718;7.328;2024-03-02T09:15:56;6.15;;;3.40;;
37455;SDS011;23316;50.718;7.328;2024-03-02T09:18:23;7.47;;;2.80;;
37455;SDS011;23316;50.718;7.328;2024-03-02T09:20:50;6.88;;;2.83;;
37455;SDS011;23316;50.718;7.328;2024-03-02T09:23:18;4.85;;;2.80;;
37455;SDS011;23316;50.718;7.328;2024-03-02T09:25:45;4.18;;;2.60;;
37455;SDS011;23316;50.718;7.328;2024-03-02T09:28:12;6.00;;;2.95;;
37455;SDS011;23316;50.718;7.328;2024-03-02T09:30:43;3.95;;;2.58;;
37455;SDS011;23316;50.718;7.328;2024-03-02T09:33:10;3.70;;;2.38;;
37455;SDS011;23316;50.718;7.328;2024-03-02T09:35:37;7.97;;;2.50;;
37455;SDS011;23316;50.718;7.328;2024-03-02T09:38:04;4.88;;;2.97;;
37455;SDS011;23316;50.718;7.328;2024-03-02T09:40:32;5.50;;;2.85;;
37455;SDS011;23316;50.718;7.328;2024-03-02T09:42:59;3.78;;;2.30;;
37455;SDS011;23316;50.718;7.328;2024-03-02T09:45:27;3.58;;;2.20;;
37455;SDS011;23316;50.718;7.328;2024-03-02T09:47:55;3.10;;;2.00;;
37455;SDS011;23316;50.718;7.328;2024-03-02T09:50:23;3.10;;;2.20;;
37455;SDS011;23316;50.718;7.328;2024-03-02T09:52:50;3.58;;;1.98;;
37455;SDS011;23316;50.718;7.328;2024-03-02T09:55:17;3.13;;;2.17;;
37455;SDS011;23316;50.718;7.328;2024-03-02T09:57:45;3.22;;;1.90;;
37455;SDS011;23316;50.718;7.328;2024-03-02T10:00:14;3.22;;;2.10;;
37455;SDS011;23316;50.718;7.328;2024-03-02T10:02:41;11.88;;;2.30;;
37455;SDS011;23316;50.718;7.328;2024-03-02T10:05:10;4.65;;;2.10;;
37455;SDS011;23316;50.718;7.328;2024-03-02T10:07:38;2.70;;;1.80;;
37455;SDS011;23316;50.718;7.328;2024-03-02T10:10:12;3.72;;;1.88;;
37455;SDS011;23316;50.718;7.328;2024-03-02T10:12:40;4.68;;;1.90;;
37455;SDS011;23316;50.718;7.328;2024-03-02T10:15:08;3.08;;;1.92;;
37455;SDS011;23316;50.718;7.328;2024-03-02T10:17:35;1.95;;;1.65;;
37455;SDS011;23316;50.718;7.328;2024-03-02T10:20:23;3.17;;;1.48;;
37455;SDS011;23316;50.718;7.328;2024-03-02T10:22:51;2.78;;;1.67;;
37455;SDS011;23316;50.718;7.328;2024-03-02T10:25:28;5.95;;;1.60;;
37455;SDS011;23316;50.718;7.328;2024-03-02T10:27:57;2.85;;;1.33;;
37455;SDS011;23316;50.718;7.328;2024-03-02T10:30:25;1.45;;;1.13;;
37455;SDS011;23316;50.718;7.328;2024-03-02T10:32:53;2.00;;;1.40;;
37455;SDS011;23316;50.718;7.328;2024-03-02T10:35:21;1.73;;;1.40;;
37455;SDS011;23316;50.718;7.328;2024-03-02T10:37:51;2.25;;;1.42;;
37455;SDS011;23316;50.718;7.328;2024-03-02T10:40:21;2.15;;;1.58;;
37455;SDS011;23316;50.718;7.328;2024-03-02T10:42:48;2.70;;;1.10;;
37455;SDS011;23316;50.718;7.328;2024-03-02T10:45:17;9.10;;;1.65;;
37455;SDS011;23316;50.718;7.328;2024-03-02T10:47:47;2.70;;;1.20;;
37455;SDS011;23316;50.718;7.328;2024-03-02T10:50:14;2.10;;;1.20;;
37455;SDS011;23316;50.718;7.328;2024-03-02T10:52:43;3.42;;;1.10;;
37455;SDS011;23316;50.718;7.328;2024-03-02T10:55:10;4.38;;;1.60;;
37455;SDS011;23316;50.718;7.328;2024-03-02T10:57:41;2.35;;;1.25;;
37455;SDS011;23316;50.718;7.328;2024-03-02T11:00:12;3.08;;;1.52;;
37455;SDS011;23316;50.718;7.328;2024-03-02T11:02:42;2.20;;;1.27;;
37455;SDS011;23316;50.718;7.328;2024-03-02T11:07:52;1.25;;;1.00;;
37455;SDS011;23316;50.718;7.328;2024-03-02T11:10:23;3.20;;;1.25;;
37455;SDS011;23316;50.718;7.328;2024-03-02T11:12:53;1.67;;;0.93;;
37455;SDS011;23316;50.718;7.328;2024-03-02T11:15:26;1.80;;;1.05;;
37455;SDS011;23316;50.718;7.328;2024-03-02T11:17:54;2.70;;;0.90;;
37455;SDS011;23316;50.718;7.328;2024-03-02T11:20:22;2.47;;;1.30;;
37455;SDS011;23316;50.718;7.328;2024-03-02T11:22:50;1.95;;;1.08;;
37455;SDS011;23316;50.718;7.328;2024-03-02T11:25:25;2.47;;;1.00;;
37455;SDS011;23316;50.718;7.328;2024-03-02T11:27:59;2.75;;;0.98;;
37455;SDS011;23316;50.718;7.328;2024-03-02T11:33:24;1.38;;;0.90;;
37455;SDS011;23316;50.718;7.328;2024-03-02T11:35:53;1.27;;;0.80;;
37455;SDS011;23316;50.718;7.328;2024-03-02T11:38:20;0.88;;;0.80;;
37455;SDS011;23316;50.718;7.328;2024-03-02T11:40:49;1.23;;;0.80;;
37455;SDS011;23316;50.718;7.328;2024-03-02T11:43:16;2.60;;;1.05;;
37455;SDS011;23316;50.718;7.328;2024-03-02T11:45:44;1.60;;;1.00;;
37455;SDS011;23316;50.718;7.328;2024-03-02T11:48:11;0.70;;;0.70;;
37455;SDS011;23316;50.718;7.328;2024-03-02T11:50:41;1.80;;;1.05;;
37455;SDS011;23316;50.718;7.328;2024-03-02T11:53:12;1.33;;;0.80;;
37455;SDS011;23316;50.718;7.328;2024-03-02T11:55:39;1.88;;;0.95;;
37455;SDS011;23316;50.718;7.328;2024-03-02T11:58:10;2.58;;;0.98;;
37455;SDS011;23316;50.718;7.328;2024-03-02T12:00:38;6.63;;;1.23;;
37455;SDS011;23316;50.718;7.328;2024-03-02T12:03:05;9.52;;;1.40;;
37455;SDS011;23316;50.718;7.328;2024-03-02T12:05:34;15.45;;;1.30;;
37455;SDS011;23316;50.718;7.328;2024-03-02T12:08:02;7.57;;;1.38;;
37455;SDS011;23316;50.718;7.328;2024-03-02T12:10:32;3.92;;;1.00;;
37455;SDS011;23316;50.718;7.328;2024-03-02T12:13:01;4.55;;;1.25;;
37455;SDS011;23316;50.718;7.328;2024-03-02T12:15:31;3.97;;;1.15;;
37455;SDS011;23316;50.718;7.328;2024-03-02T12:18:02;3.42;;;0.85;;
37455;SDS011;23316;50.718;7.328;2024-03-02T12:20:31;3.88;;;1.00;;
37455;SDS011;23316;50.718;7.328;2024-03-02T12:22:59;9.88;;;1.38;;
37455;SDS011;23316;50.718;7.328;2024-03-02T12:25:28;1.73;;;0.88;;
37455;SDS011;23316;50.718;7.328;2024-03-02T12:27:56;2.83;;;1.00;;
37455;SDS011;23316;50.718;7.328;2024-03-02T12:30:26;3.90;;;0.90;;
37455;SDS011;23316;50.718;7.328;2024-03-02T12:32:56;1.67;;;0.88;;
37455;SDS011;23316;50.718;7.328;2024-03-02T12:35:24;1.10;;;0.80;;
37455;SDS011;23316;50.718;7.328;2024-03-02T12:37:52;2.38;;;1.08;;
37455;SDS011;23316;50.718;7.328;2024-03-02T12:40:21;2.33;;;1.02;;
37455;SDS011;23316;50.718;7.328;2024-03-02T12:42:48;6.22;;;1.10;;
37455;SDS011;23316;50.718;7.328;2024-03-02T12:45:16;9.68;;;1.67;;
37455;SDS011;23316;50.718;7.328;2024-03-02T12:47:49;10.57;;;1.48;;
37455;SDS011;23316;50.718;7.328;2024-03-02T12:50:18;25.92;;;2.10;;
37455;SDS011;23316;50.718;7.328;2024-03-02T12:52:50;12.13;;;1.90;;
37455;SDS011;23316;50.718;7.328;2024-03-02T12:55:18;12.27;;;1.85;;
37455;SDS011;23316;50.718;7.328;2024-03-02T12:57:47;6.75;;;1.40;;
37455;SDS011;23316;50.718;7.328;2024-03-02T13:00:17;6.03;;;1.40;;
37455;SDS011;23316;50.718;7.328;2024-03-02T13:02:45;5.13;;;1.10;;
37455;SDS011;23316;50.718;7.328;2024-03-02T13:05:13;5.13;;;1.05;;
37455;SDS011;23316;50.718;7.328;2024-03-02T13:07:42;3.90;;;1.08;;
37455;SDS011;23316;50.718;7.328;2024-03-02T13:10:10;4.32;;;1.20;;
37455;SDS011;23316;50.718;7.328;2024-03-02T13:12:39;3.92;;;1.10;;
37455;SDS011;23316;50.718;7.328;2024-03-02T13:15:07;4.72;;;1.13;;
37455;SDS011;23316;50.718;7.328;2024-03-02T13:17:35;6.88;;;1.10;;
37455;SDS011;23316;50.718;7.328;2024-03-02T13:20:03;4.22;;;1.05;;
37455;SDS011;23316;50.718;7.328;2024-03-02T13:22:33;1.73;;;0.82;;
37455;SDS011;23316;50.718;7.328;2024-03-02T13:25:02;1.83;;;0.73;;
37455;SDS011;23316;50.718;7.328;2024-03-02T13:27:30;4.13;;;0.80;;
37455;SDS011;23316;50.718;7.328;2024-03-02T13:29:57;2.67;;;0.88;;
37455;SDS011;23316;50.718;7.328;2024-03-02T13:32:25;1.40;;;0.80;;
37455;SDS011;23316;50.718;7.328;2024-03-02T13:34:52;4.40;;;1.10;;
37455;SDS011;23316;50.718;7.328;2024-03-02T13:37:19;4.15;;;0.90;;
37455;SDS011;23316;50.718;7.328;2024-03-02T13:39:47;1.20;;;0.85;;
37455;SDS011;23316;50.718;7.328;2024-03-02T13:42:15;3.55;;;1.30;;
37455;SDS011;23316;50.718;7.328;2024-03-02T13:44:43;2.42;;;0.80;;
37455;SDS011;23316;50.718;7.328;2024-03-02T13:47:11;2.90;;;0.80;;
37455;SDS011;23316;50.718;7.328;2024-03-02T13:49:38;2.25;;;0.98;;
37455;SDS011;23316;50.718;7.328;2024-03-02T13:52:09;0.90;;;0.80;;
37455;SDS011;23316;50.718;7.328;2024-03-02T13:54:38;3.25;;;0.80;;
37455;SDS011;23316;50.718;7.328;2024-03-02T13:57:07;1.00;;;0.90;;
37455;SDS011;23316;50.718;7.328;2024-03-02T13:59:36;2.45;;;0.80;;
37455;SDS011;23316;50.718;7.328;2024-03-02T14:02:04;3.90;;;0.77;;
37455;SDS011;23316;50.718;7.328;2024-03-02T14:04:32;3.17;;;1.10;;
37455;SDS011;23316;50.718;7.328;2024-03-02T14:07:00;1.02;;;0.60;;
37455;SDS011;23316;50.718;7.328;2024-03-02T14:09:28;1.92;;;1.00;;
37455;SDS011;23316;50.718;7.328;2024-03-02T14:11:55;2.67;;;1.48;;
37455;SDS011;23316;50.718;7.328;2024-03-02T14:14:23;2.60;;;1.80;;
37455;SDS011;23316;50.718;7.328;2024-03-02T14:16:51;2.55;;;1.45;;
37455;SDS011;23316;50.718;7.328;2024-03-02T14:19:19;2.58;;;1.35;;
37455;SDS011;23316;50.718;7.328;2024-03-02T14:21:46;8.43;;;1.23;;
37455;SDS011;23316;50.718;7.328;2024-03-02T14:24:14;4.25;;;1.38;;
37455;SDS011;23316;50.718;7.328;2024-03-02T14:26:41;2.53;;;1.33;;
37455;SDS011;23316;50.718;7.328;2024-03-02T14:29:08;8.40;;;2.08;;
37455;SDS011;23316;50.718;7.328;2024-03-02T14:31:35;5.18;;;0.95;;
37455;SDS011;23316;50.718;7.328;2024-03-02T14:34:04;4.97;;;1.17;;
37455;SDS011;23316;50.718;7.328;2024-03-02T14:36:31;7.13;;;1.77;;
37455;SDS011;23316;50.718;7.328;2024-03-02T14:38:59;6.05;;;1.55;;
37455;SDS011;23316;50.718;7.328;2024-03-02T14:41:26;15.13;;;1.23;;
37455;SDS011;23316;50.718;7.328;2024-03-02T14:43:53;23.40;;;2.45;;
37455;SDS011;23316;50.718;7.328;2024-03-02T14:46:20;10.77;;;1.38;;
37455;SDS011;23316;50.718;7.328;2024-03-02T14:48:47;7.35;;;1.15;;
37455;SDS011;23316;50.718;7.328;2024-03-02T14:51:16;8.32;;;1.45;;
37455;SDS011;23316;50.718;7.328;2024-03-02T14:53:43;8.30;;;1.42;;
37455;SDS011;23316;50.718;7.328;2024-03-02T14:56:10;9.88;;;1.83;;
37455;SDS011;23316;50.718;7.328;2024-03-02T14:58:39;12.15;;;1.50;;